Latest Weather Observations for The Monument

IDQ60801

Issued at 11:31 am EST Sunday 14 February 2016 (issued every 30 minutes, with the page automatically refreshed every 10 minutes)

About weather observations | Map of weather stations | Latest weather observations for QLD | Other Formats
Station Details ID: 037034 Name: THE MONUMENT AIRPORT Lat: -21.81 Lon: 139.93 Height: 288.4 m
Data from the previous 72 hours. | See also: Recent months at The Monument
Date/Time
EST
Temp
°C
App
Temp
°C
Dew
Point
Rel
Hum
%
Delta-T
°C
Wind Press
QNH
hPa
Press
MSL
hPa
Rain
since 9 am
mm
Dir
 
Spd
km/h
Gust
km/h
Spd
kts
Gust
kts
14/11:00am 37.8 35.6 7.7 16 17.2 ENE 9 20 5 11 1010.1 1007.9 0.0
14/10:30am 37.1 35.1 8.8 18 16.4 ENE 9 15 5 8 1010.2 1008.0 0.0
14/10:00am 36.4 34.1 9.1 19 15.9 N 11 17 6 9 1010.6 1008.4 0.0
14/09:30am 35.4 33.3 9.7 21 15.0 NNE 11 17 6 9 1010.5 1008.3 0.0
14/09:00am 34.7 32.6 9.9 22 14.5 NE 11 17 6 9 1010.6 1008.4 0.0
14/08:30am 33.5 31.5 10.2 24 13.6 ENE 11 17 6 9 1010.4 1008.2 0.0
14/08:00am 30.0 30.6 12.0 33 10.6 CALM 0 0 0 0 1010.3 1008.1 0.0
14/07:30am 27.7 28.1 11.3 36 9.5 CALM 0 2 0 1 1010.1 1007.9 0.0
14/07:00am 24.8 25.7 13.0 47 6.9 CALM 0 0 0 0 1009.7 1007.5 0.0
14/06:30am 25.1 24.3 10.9 41 8.1 NNW 6 11 3 6 1009.1 1006.9 0.0
14/06:00am 24.6 25.0 11.2 43 7.6 CALM 0 0 0 0 1008.8 1006.6 0.0
14/05:30am 24.4 23.6 11.0 43 7.6 NNW 6 9 3 5 1008.6 1006.4 0.0
14/05:00am 25.8 25.6 9.2 35 9.2 CALM 0 0 0 0 1008.4 1006.2 0.0
14/04:30am 25.9 24.8 8.4 33 9.6 N 4 9 2 5 1008.3 1006.1 0.0
14/04:00am 26.3 25.9 8.3 32 9.9 CALM 0 6 0 3 1008.3 1006.1 0.0
14/03:30am 27.2 26.8 8.1 30 10.4 CALM 0 0 0 0 1008.5 1006.3 0.0
14/03:00am 26.2 26.4 10.4 37 9.0 CALM 0 0 0 0 1008.6 1006.4 0.0
14/02:30am 27.0 25.9 10.7 36 9.3 SSW 7 13 4 7 1008.7 1006.5 0.0
14/02:00am 27.7 27.2 9.5 32 10.2 NE 2 9 1 5 1008.8 1006.6 0.0
14/01:30am 26.9 26.2 11.4 38 8.9 NE 6 17 3 9 1008.8 1006.6 0.0
14/01:00am 27.3 28.3 13.3 42 8.4 CALM 0 0 0 0 1008.8 1006.6 0.0
14/12:30am 28.6 28.6 9.8 31 10.7 CALM 0 0 0 0 1008.9 1006.7 0.0
14/12:00am 29.0 28.8 9.2 29 11.2 CALM 0 0 0 0 1009.2 1007.0 0.0
 
Date/Time
EST
Temp
°C
App
Temp
°C
Dew
Point
Rel
Hum
%
Delta-T
°C
Wind Press
QNH
hPa
Press
MSL
hPa
Rain
since 9 am
mm
Dir
 
Spd
km/h
Gust
km/h
Spd
kts
Gust
kts
13/11:30pm 29.1 27.7 8.7 28 11.4 ENE 6 7 3 4 1009.5 1007.3 0.0
13/11:00pm 29.9 30.2 10.9 31 11.0 CALM 0 0 0 0 1009.5 1007.3 0.0
13/10:30pm 29.4 29.7 11.0 32 10.7 CALM 0 0 0 0 1009.3 1007.2 0.0
13/10:00pm 30.5 30.5 9.9 28 11.8 CALM 0 0 0 0 1009.1 1006.9 0.0
13/09:30pm 32.3 30.4 9.2 24 13.2 SSW 9 13 5 7 1009.0 1006.8 0.0
13/09:00pm 33.0 31.0 8.5 22 13.9 S 9 11 5 6 1008.7 1006.5 0.0
13/08:30pm 33.4 30.9 8.1 21 14.3 S 11 13 6 7 1008.4 1006.2 0.0
13/08:00pm 34.9 31.9 7.9 19 15.3 S 13 15 7 8 1008.0 1005.8 0.0
13/07:30pm 35.8 32.3 7.0 17 16.2 S 15 17 8 9 1007.7 1005.5 0.0
13/07:00pm 37.2 32.7 6.3 15 17.3 S 19 24 10 13 1007.4 1005.2 0.0
13/06:30pm 38.2 33.7 6.0 14 18.0 S 19 28 10 15 1007.2 1005.0 0.0
13/06:00pm 38.7 33.7 6.4 14 18.2 S 22 30 12 16 1007.1 1004.9 0.0
13/05:30pm 39.4 34.7 5.9 13 18.8 SE 20 32 11 17 1007.1 1004.9 0.0
13/05:00pm 39.4 34.3 5.9 13 18.8 S 22 32 12 17 1007.0 1004.8 0.0
13/04:30pm 39.3 36.1 6.9 14 18.4 ESE 13 24 7 13 1007.2 1005.0 0.0
13/04:00pm 39.4 35.5 7.0 14 18.5 S 17 30 9 16 1007.3 1005.1 0.0
13/03:30pm 39.5 35.6 7.1 14 18.5 SSE 17 37 9 20 1007.6 1005.4 0.0
13/03:00pm 39.6 35.9 8.1 15 18.3 SSE 17 37 9 20 1007.9 1005.7 0.0
13/02:30pm 39.8 35.4 7.3 14 18.7 SE 20 32 11 17 1008.1 1005.9 0.0
13/02:00pm 39.1 35.0 8.7 16 17.8 SSE 20 30 11 16 1008.7 1006.5 0.0
13/01:30pm 38.4 35.1 8.1 16 17.5 SSE 15 26 8 14 1009.1 1006.9 0.0
13/01:00pm 39.2 36.2 7.8 15 18.1 SSE 13 26 7 14 1009.7 1007.5 0.0
13/12:30pm 38.5 35.8 9.1 17 17.2 ESE 13 26 7 14 1010.1 1007.9 0.0
13/12:00pm 37.1 34.0 7.1 16 17.0 SE 13 24 7 13 1010.5 1008.3 0.0
13/11:30am 37.0 35.6 8.8 18 16.3 NNE 6 19 3 10 1010.7 1008.5 0.0
13/11:00am 36.8 36.1 10.2 20 15.7 NE 4 13 2 7 1011.0 1008.8 0.0
13/10:30am 36.5 34.8 9.9 20 15.6 N 9 15 5 8 1011.3 1009.1 0.0
13/10:00am 35.2 32.9 10.3 22 14.7 N 13 20 7 11 1011.5 1009.3 0.0
13/09:30am 34.1 30.7 10.7 24 13.8 NE 19 24 10 13 1011.6 1009.4 0.0
13/09:00am 33.2 30.2 10.5 25 13.3 NE 17 24 9 13 1011.7 1009.5 0.0
13/08:30am 32.2 30.4 10.8 27 12.5 NNE 11 17 6 9 1011.7 1009.5 0.0
13/08:00am 30.4 28.1 10.4 29 11.5 NE 13 17 7 9 1011.6 1009.4 0.0
13/07:30am 28.5 29.1 12.0 36 9.7 CALM 0 0 0 0 1011.3 1009.1 0.0
13/07:00am 25.7 24.8 11.5 41 8.2 NNE 7 9 4 5 1010.8 1008.6 0.0
13/06:30am 24.7 23.0 11.3 43 7.6 NNE 11 11 6 6 1010.4 1008.2 0.0
13/06:00am 25.7 24.2 10.7 39 8.5 NNE 9 11 5 6 1010.2 1008.0 0.0
13/05:30am 25.9 24.0 10.5 38 8.7 NNE 11 11 6 6 1009.8 1007.6 0.0
13/05:00am 25.7 24.0 11.1 40 8.4 NNE 11 13 6 7 1009.6 1007.4 0.0
13/04:30am 26.3 24.3 10.0 36 9.2 N 11 11 6 6 1009.1 1006.9 0.0
13/04:00am 27.0 24.9 9.8 34 9.7 N 11 13 6 7 1008.9 1006.7 0.0
13/03:30am 27.6 25.0 9.4 32 10.2 N 13 15 7 8 1009.0 1006.8 0.0
13/03:00am 27.4 24.9 9.7 33 10.0 N 13 15 7 8 1009.0 1006.8 0.0
13/02:30am 26.7 24.2 8.2 31 10.1 N 11 13 6 7 1009.1 1006.9 0.0
13/02:00am 26.9 24.7 7.9 30 10.4 N 9 13 5 7 1009.5 1007.3 0.0
13/01:30am 28.1 25.8 7.4 27 11.2 NNE 9 13 5 7 1009.7 1007.5 0.0
13/01:00am 30.0 26.1 7.2 24 12.5 E 17 20 9 11 1009.9 1007.7 0.0
13/12:30am 29.6 26.3 8.1 26 11.9 E 15 20 8 11 1010.0 1007.8 0.0
13/12:00am 29.3 27.8 8.4 27 11.6 ESE 6 9 3 5 1010.0 1007.8 0.0
 
Date/Time
EST
Temp
°C
App
Temp
°C
Dew
Point
Rel
Hum
%
Delta-T
°C
Wind Press
QNH
hPa
Press
MSL
hPa
Rain
since 9 am
mm
Dir
 
Spd
km/h
Gust
km/h
Spd
kts
Gust
kts
12/11:30pm 29.7 28.1 8.7 27 11.8 SE 7 11 4 6 1010.1 1007.9 0.0
12/11:00pm 30.2 28.2 8.6 26 12.1 SE 9 11 5 6 1010.1 1007.9 0.0
12/10:30pm 30.5 28.4 8.3 25 12.4 SE 9 11 5 6 1009.9 1007.7 0.0
12/10:00pm 31.0 28.9 8.1 24 12.8 SE 9 11 5 6 1009.8 1007.6 0.0
12/09:30pm 31.8 28.8 7.5 22 13.5 SE 13 15 7 8 1009.6 1007.4 0.0
12/09:00pm 32.7 29.5 6.8 20 14.3 SE 13 17 7 9 1009.3 1007.2 0.0
12/08:30pm 33.8 29.7 6.2 18 15.1 SSE 17 22 9 12 1009.1 1006.9 0.0
12/08:00pm 34.7 30.0 6.1 17 15.8 SSE 20 26 11 14 1008.9 1006.7 0.0
12/07:30pm 35.6 30.9 5.9 16 16.4 SSE 20 28 11 15 1008.5 1006.3 0.0
12/07:00pm 36.8 32.3 5.9 15 17.2 SSE 19 28 10 15 1008.2 1006.0 0.0
12/06:30pm 37.7 33.3 7.6 16 17.2 SSE 20 30 11 16 1007.9 1005.7 0.0
12/06:00pm 38.1 33.4 6.0 14 18.0 SSE 20 28 11 15 1007.9 1005.7 0.0
12/05:30pm 38.8 34.4 7.5 15 17.9 SSE 20 32 11 17 1007.7 1005.5 0.0
12/05:00pm 39.2 33.5 6.8 14 18.4 S 26 41 14 22 1007.8 1005.6 0.0
12/04:30pm 39.2 34.9 6.8 14 18.4 SSE 19 32 10 17 1007.9 1005.7 0.0
12/04:00pm 38.8 33.1 6.5 14 18.3 SE 26 37 14 20 1008.0 1005.8 0.0
12/03:30pm 38.8 32.8 5.4 13 18.6 SE 26 41 14 22 1008.2 1006.0 0.0
12/03:00pm 38.9 33.6 6.6 14 18.3 S 24 39 13 21 1008.4 1006.2 0.0
12/02:30pm 38.9 34.8 8.5 16 17.7 S 20 32 11 17 1008.8 1006.6 0.0
12/02:00pm 38.0 33.9 7.8 16 17.3 S 19 32 10 17 1009.5 1007.3 0.0
12/01:30pm 38.0 33.7 7.8 16 17.3 SSE 20 39 11 21 1010.0 1007.8 0.0
12/01:00pm 37.7 33.0 7.6 16 17.2 SSE 22 35 12 19 1010.4 1008.2 0.0
12/12:30pm 37.3 33.5 9.0 18 16.5 SSE 19 30 10 16 1010.9 1008.7 0.0
12/12:00pm 36.5 32.9 8.4 18 16.2 SE 17 26 9 14 1011.1 1008.9 0.0
12/11:30am 36.4 33.9 8.3 18 16.1 SE 11 20 6 11 1011.5 1009.3 0.0
12/11:00am 36.1 34.7 8.8 19 15.8 ENE 6 15 3 8 1011.8 1009.6 0.0
12/10:30am 35.2 33.6 8.9 20 15.1 E 7 15 4 8 1012.2 1010.0 0.0
12/10:00am 35.0 34.3 10.1 22 14.6 NNW 4 9 2 5 1012.4 1010.3 0.0
12/09:30am 33.5 32.5 10.2 24 13.6 WNW 6 11 3 6 1012.3 1010.1 0.0
12/09:00am 32.5 31.0 10.5 26 12.8 NNW 9 13 5 7 1012.1 1009.9 0.0
12/08:30am 31.7 30.2 10.4 27 12.4 N 9 13 5 7 1012.0 1009.8 0.0
12/08:00am 30.4 28.9 11.9 32 10.9 N 11 15 6 8 1011.9 1009.7 0.0
12/07:30am 27.1 26.8 12.7 41 8.5 N 6 9 3 5 1011.8 1009.6 0.0
12/07:00am 24.8 25.2 11.4 43 7.7 CALM 0 0 0 0 1011.5 1009.3 0.0
12/06:30am 24.3 23.8 10.6 42 7.7 N 4 7 2 4 1011.1 1008.9 0.0
12/06:00am 24.7 23.8 10.6 41 8.0 N 6 9 3 5 1010.9 1008.7 0.0
12/05:30am 24.1 24.1 9.7 40 8.0 CALM 0 7 0 4 1010.5 1008.3 0.0
12/05:00am 24.5 22.8 8.5 36 8.7 NNE 7 9 4 5 1010.3 1008.1 0.0
12/04:30am 24.3 23.5 9.5 39 8.2 NE 4 9 2 5 1010.2 1008.0 0.0
12/04:00am 24.7 24.5 9.0 37 8.6 CALM 0 0 0 0 1010.0 1007.8 0.0
12/03:30am 26.8 26.1 6.8 28 10.7 CALM 0 0 0 0 1010.0 1007.8 0.0
12/03:00am 26.7 26.1 7.2 29 10.5 CALM 0 0 0 0 1010.1 1007.9 0.0
12/02:30am 27.1 24.7 7.0 28 10.8 ESE 9 13 5 7 1010.0 1007.8 0.0
12/02:00am 27.6 25.3 7.5 28 10.9 ESE 9 13 5 7 1010.3 1008.1 0.0
12/01:30am 29.0 25.5 7.0 25 11.9 SE 15 19 8 10 1010.5 1008.3 0.0
12/01:00am 29.9 26.4 7.2 24 12.4 SE 15 20 8 11 1010.7 1008.5 0.0
12/12:30am 30.4 26.2 7.6 24 12.6 SE 19 24 10 13 1010.5 1008.3 0.0
12/12:00am 30.7 26.8 7.2 23 12.9 SSE 17 20 9 11 1010.7 1008.5 0.0
 
Date/Time
EST
Temp
°C
App
Temp
°C
Dew
Point
Rel
Hum
%
Delta-T
°C
Wind Press
QNH
hPa
Press
MSL
hPa
Rain
since 9 am
mm
Dir
 
Spd
km/h
Gust
km/h
Spd
kts
Gust
kts
11/11:30pm 30.1 27.1 7.9 25 12.3 S 13 17 7 9 1010.7 1008.5 0.0
11/11:00pm 30.1 27.1 7.9 25 12.3 S 13 17 7 9 1010.5 1008.3 0.0
11/10:30pm 30.9 27.8 7.4 23 13.0 S 13 17 7 9 1010.4 1008.2 0.0
11/10:00pm 31.6 28.1 7.3 22 13.4 S 15 20 8 11 1010.2 1008.0 0.0
11/09:30pm 32.1 28.9 8.4 23 13.4 SSE 15 19 8 10 1009.9 1007.7 0.0
11/09:00pm 31.8 29.4 9.9 26 12.6 SSE 13 15 7 8 1009.6 1007.4 0.0
11/08:30pm 32.7 30.1 9.5 24 13.3 S 13 15 7 8 1009.1 1006.9 0.0
11/08:00pm 33.6 30.9 9.0 22 14.1 S 13 17 7 9 1008.8 1006.6 0.0
11/07:30pm 34.8 31.4 9.3 21 14.7 S 17 24 9 13 1008.5 1006.3 0.0
11/07:00pm 35.7 32.1 8.5 19 15.6 SSE 17 20 9 11 1008.1 1005.9 0.0
11/06:30pm 36.6 32.6 9.2 19 15.9 SSE 20 30 11 16 1007.8 1005.6 0.0
11/06:00pm 37.0 32.7 7.9 17 16.7 SSE 20 28 11 15 1007.5 1005.3 0.0
11/05:30pm 37.3 33.9 9.0 18 16.5 SSE 17 24 9 13 1007.3 1005.1 0.0
11/05:00pm 36.7 32.4 7.7 17 16.5 SE 20 30 11 16 1007.2 1005.0 0.0
11/04:30pm 38.1 35.2 9.6 18 16.8 S 15 20 8 11 1007.1 1004.9 0.0
11/04:00pm 37.5 34.5 9.2 18 16.6 SE 15 28 8 15 1007.3 1005.1 0.0
11/03:30pm 37.6 35.0 10.8 20 16.0 SSE 15 28 8 15 1007.6 1005.4 0.0
11/03:00pm 37.2 33.9 9.7 19 16.2 SSE 17 24 9 13 1008.0 1005.8 0.0
11/02:30pm 37.2 34.1 8.9 18 16.4 SSE 15 26 8 14 1008.4 1006.2 0.0
11/02:00pm 37.2 32.6 8.1 17 16.7 SSE 22 39 12 21 1008.8 1006.6 0.0
11/01:30pm 36.4 32.6 9.8 20 15.6 SE 20 32 11 17 1009.1 1006.9 0.0
11/01:00pm 36.0 32.7 9.5 20 15.5 ESE 17 30 9 16 1009.7 1007.5 0.0
11/12:30pm 35.4 32.3 10.4 22 14.7 SSE 17 26 9 14 1010.2 1008.0 0.0
11/12:00pm 35.4 32.3 11.7 23 14.3 SE 19 33 10 18 1010.5 1008.3 0.0

Other Formats:

Comma delimited format used in spreadsheet applications
http://www.bom.gov.au/fwo/IDQ60801/IDQ60801.94336.axf

JavaScript Object Notation format (JSON) in row-major order
http://www.bom.gov.au/fwo/IDQ60801/IDQ60801.94336.json